Terminal Aerodrome Forecast
Issued by NWS

Home | Current Version | Previous Version | Text Only | Print | Product List | Glossary On
Versions: 1 2 3 4 5 6 7 8 9 10 11 12 13 14 15 16 17
000
FTUS44 KTSA 202300
TAFBVO
TAF
KBVO 202325Z 2100/2124 17004KT P6SM SCT050 BKN120
      TEMPO 2100/2104 5SM -SHRA BKN040
     FM210800 00000KT P6SM BKN020
     FM211300 19005KT P6SM BKN015
     FM211800 30006KT P6SM BKN030 PROB30 2118/2124 5SM -TSRA
      BKN020CB=

USA.gov is the U.S. government's official web portal to all federal, state and local government web resources and services.